臺北飛航情報區 - 海峽席

METAR RCTP 181230Z 07014KT 9000 FEW015 BKN024 15/11 Q1020 NOSIG RMK A3014=

站台狀態:Online
最後更新:2020-01-18 20:45:04